Allisonia, Virginia
Current Conditions -  °F | °C
As of 8:15 AM on Tuesday 21 Oct 2014 (Local Time) from KPSK Reporting Station
Scattered Clouds Scattered Clouds  
Wind Chill: 47°   Ceiling: Unl
Heat Index: 49°   Visibility: 7mi
Dew Point: 49°   Wind: 7mph
Humidity: 100%   Direction: 230°SW
Pressure: 29.96"   Gusts: NA
Location:  36.9752°N, 80.6434°W
Report Text: KPSK 211215Z AUTO 23006KT 7SM SCT027 10/10 A2996 RMK AO2 T00970097
Loading
Personal Weather Stations






























Interactive Weather Map
Tropical Storm Tracking
New forecast layout! Learn more

10-Day Weather Forecast

Advertisements
Track Severe Weather on mobile